createdAt,value
2018-08-19T00:02:14.778Z,11.87
2018-08-19T00:04:53.614Z,13.40
2018-08-19T00:07:42.310Z,13.43
2018-08-19T00:10:15.685Z,13.20
2018-08-19T00:12:50.242Z,11.97
2018-08-19T00:15:24.236Z,11.53
2018-08-19T00:17:58.519Z,12.13
2018-08-19T00:20:31.538Z,12.67
2018-08-19T00:23:05.190Z,10.93
2018-08-19T00:25:41.032Z,11.40
2018-08-19T00:28:17.408Z,10.30
2018-08-19T00:30:50.796Z,11.47
2018-08-19T00:33:24.039Z,10.93
2018-08-19T00:35:57.523Z,10.30
2018-08-19T00:38:31.329Z,10.87
2018-08-19T00:41:08.851Z,10.63
2018-08-19T00:43:42.452Z,10.80
2018-08-19T00:46:23.027Z,10.87
2018-08-19T00:48:57.208Z,11.30
2018-08-19T00:51:32.793Z,10.63
2018-08-19T00:54:06.249Z,11.13
2018-08-19T00:56:42.001Z,11.30
2018-08-19T00:59:16.079Z,9.73
2018-08-19T01:01:50.129Z,10.83
2018-08-19T01:04:23.456Z,10.23
2018-08-19T01:06:58.081Z,10.07
2018-08-19T01:09:34.128Z,10.37
2018-08-19T01:12:07.607Z,9.97
2018-08-19T01:14:41.404Z,10.17
2018-08-19T01:17:14.638Z,10.60
2018-08-19T01:19:48.259Z,10.50
2018-08-19T01:22:27.999Z,10.47
2018-08-19T01:25:01.267Z,11.23
2018-08-19T01:27:36.910Z,10.07
2018-08-19T01:30:17.688Z,10.70
2018-08-19T01:32:51.444Z,10.47
2018-08-19T01:35:31.109Z,10.37
2018-08-19T01:38:05.124Z,10.70
2018-08-19T01:40:39.587Z,11.03
2018-08-19T01:43:14.723Z,10.70
2018-08-19T01:45:49.259Z,11.87
2018-08-19T01:48:23.037Z,12.23
2018-08-19T01:50:56.454Z,13.00
2018-08-19T01:53:30.027Z,13.47
2018-08-19T01:56:03.320Z,17.90
2018-08-19T01:58:44.084Z,18.87
2018-08-19T02:01:33.520Z,21.73
2018-08-19T02:04:25.696Z,21.13
2018-08-19T02:07:02.103Z,22.03
2018-08-19T02:09:35.476Z,21.90
2018-08-19T02:12:13.995Z,23.90
2018-08-19T02:14:47.582Z,26.13
2018-08-19T02:17:21.204Z,25.30
2018-08-19T02:19:55.069Z,26.57
2018-08-19T02:22:29.040Z,25.77
2018-08-19T02:25:02.327Z,26.27
2018-08-19T02:27:35.908Z,25.23
2018-08-19T02:30:09.388Z,24.90
2018-08-19T02:32:42.896Z,24.60
2018-08-19T02:35:17.506Z,25.63
2018-08-19T02:37:52.093Z,25.40
2018-08-19T02:40:29.371Z,24.53
2018-08-19T02:43:03.239Z,22.43
2018-08-19T02:45:36.670Z,24.10
2018-08-19T02:48:10.047Z,22.70
2018-08-19T02:50:43.768Z,22.50
2018-08-19T02:53:19.614Z,21.90
2018-08-19T02:55:56.606Z,22.37
2018-08-19T02:58:30.016Z,22.27
2018-08-19T03:01:03.525Z,22.33
2018-08-19T03:03:36.720Z,22.33
2018-08-19T03:06:10.451Z,21.13
2018-08-19T03:08:48.751Z,20.33
2018-08-19T03:11:31.405Z,20.37
2018-08-19T03:14:06.445Z,20.37
2018-08-19T03:16:39.960Z,20.70
2018-08-19T03:19:13.804Z,19.27
2018-08-19T03:21:49.127Z,20.57
2018-08-19T03:24:26.585Z,19.40
2018-08-19T03:27:02.716Z,18.27
2018-08-19T03:29:41.342Z,18.20
2018-08-19T03:32:17.062Z,18.87
2018-08-19T03:34:50.734Z,17.97
2018-08-19T03:37:24.208Z,17.10
2018-08-19T03:39:58.042Z,16.33
2018-08-19T03:42:31.781Z,16.13
2018-08-19T03:45:23.809Z,15.43
2018-08-19T03:47:56.893Z,15.50
2018-08-19T03:50:31.300Z,15.43
2018-08-19T03:53:05.228Z,15.73
2018-08-19T03:55:43.143Z,16.03
2018-08-19T03:58:18.208Z,16.17
2018-08-19T04:00:56.424Z,16.37
2018-08-19T04:03:30.012Z,15.57
2018-08-19T04:06:06.246Z,15.30
2018-08-19T04:08:47.906Z,15.00
2018-08-19T04:11:24.460Z,15.80
2018-08-19T04:14:01.188Z,15.67
2018-08-19T04:16:40.285Z,15.13
2018-08-19T04:19:15.652Z,14.97
2018-08-19T04:21:50.490Z,15.63
2018-08-19T04:24:27.571Z,16.17
2018-08-19T04:27:02.116Z,15.33
2018-08-19T04:29:39.363Z,15.00
2018-08-19T04:32:21.153Z,15.70
2018-08-19T04:34:58.938Z,14.57
2018-08-19T04:37:32.812Z,15.63
2018-08-19T04:40:06.785Z,16.07
2018-08-19T04:42:41.498Z,16.07
2018-08-19T04:45:14.887Z,15.23
2018-08-19T04:47:48.477Z,16.53
2018-08-19T04:50:23.384Z,15.30
2018-08-19T04:52:57.308Z,16.27
2018-08-19T04:55:32.162Z,16.70
2018-08-19T04:58:06.752Z,16.50
2018-08-19T05:00:41.818Z,17.63
2018-08-19T05:03:19.925Z,16.57
2018-08-19T05:05:54.441Z,17.53
2018-08-19T05:08:30.568Z,17.00
2018-08-19T05:11:08.565Z,17.40
2018-08-19T05:13:42.620Z,16.90
2018-08-19T05:16:17.607Z,17.33
2018-08-19T05:19:02.208Z,16.87
2018-08-19T05:21:37.759Z,16.93
2018-08-19T05:24:12.180Z,17.60
2018-08-19T05:26:45.968Z,17.43
2018-08-19T05:29:19.801Z,17.60
2018-08-19T05:31:59.011Z,18.50
2018-08-19T05:34:35.524Z,17.77
2018-08-19T05:37:09.148Z,18.53
2018-08-19T05:39:59.285Z,17.43
2018-08-19T05:42:33.666Z,18.13
2018-08-19T05:45:12.521Z,17.47
2018-08-19T05:47:49.165Z,18.07
2018-08-19T05:50:22.772Z,16.83
2018-08-19T05:52:58.925Z,17.27
2018-08-19T05:55:36.647Z,17.20
2018-08-19T05:58:11.238Z,16.97
2018-08-19T06:00:54.482Z,16.87
2018-08-19T06:03:30.432Z,17.23
2018-08-19T06:06:05.272Z,17.07
2018-08-19T06:08:39.614Z,17.60
2018-08-19T06:11:13.463Z,17.13
2018-08-19T06:13:48.673Z,16.27
2018-08-19T06:16:23.933Z,15.93
2018-08-19T06:19:01.009Z,15.67
2018-08-19T06:21:35.211Z,16.37
2018-08-19T06:24:08.741Z,16.57
2018-08-19T06:26:45.091Z,15.60
2018-08-19T06:29:20.085Z,16.90
2018-08-19T06:31:55.291Z,17.63
2018-08-19T06:34:29.718Z,15.67
2018-08-19T06:37:03.033Z,16.07
2018-08-19T06:39:41.103Z,16.27
2018-08-19T06:42:20.152Z,16.20
2018-08-19T06:44:57.581Z,16.00
2018-08-19T06:47:31.952Z,15.97
2018-08-19T06:50:12.350Z,16.07
2018-08-19T06:52:45.524Z,16.17
2018-08-19T06:55:21.570Z,16.13
2018-08-19T06:57:55.520Z,16.20
2018-08-19T07:00:32.140Z,16.23
2018-08-19T07:03:07.142Z,16.90
2018-08-19T07:05:41.367Z,16.40
2018-08-19T07:08:17.303Z,16.67
2018-08-19T07:10:52.916Z,16.97
2018-08-19T07:13:30.320Z,17.33
2018-08-19T07:16:06.463Z,17.07
2018-08-19T07:18:40.945Z,16.07
2018-08-19T07:21:14.523Z,15.67
2018-08-19T07:23:49.676Z,16.10
2018-08-19T07:26:23.952Z,15.27
2018-08-19T07:28:59.758Z,15.63
2018-08-19T07:31:33.321Z,15.00
2018-08-19T07:34:08.312Z,15.47
2018-08-19T07:36:41.544Z,14.20
2018-08-19T07:39:15.673Z,15.50
2018-08-19T07:41:49.883Z,14.73
2018-08-19T07:44:24.786Z,16.27
2018-08-19T15:34:28.994Z,12.73
2018-08-19T15:37:02.885Z,13.33
2018-08-19T15:39:37.015Z,13.73
2018-08-19T15:42:13.576Z,14.10
2018-08-19T15:44:48.206Z,13.83
2018-08-19T15:47:22.369Z,14.00
2018-08-19T15:50:06.520Z,14.53
2018-08-19T15:52:40.534Z,14.63
2018-08-19T15:55:14.742Z,14.83
2018-08-19T15:57:57.626Z,14.17
2018-08-19T16:00:31.107Z,13.70
2018-08-19T16:03:08.973Z,14.87
2018-08-19T16:05:44.037Z,13.53
2018-08-19T16:08:19.040Z,14.10
2018-08-19T16:10:54.184Z,13.90
2018-08-19T16:13:29.053Z,13.77
2018-08-19T16:16:04.060Z,13.63
2018-08-19T16:18:38.009Z,13.53
2018-08-19T16:21:12.441Z,13.20
2018-08-19T16:23:45.958Z,13.27
2018-08-19T16:26:20.384Z,14.20
2018-08-19T16:28:57.636Z,13.17
2018-08-19T16:31:31.445Z,13.97
2018-08-19T16:34:05.813Z,13.50
2018-08-19T16:36:40.786Z,13.40
2018-08-19T16:39:16.443Z,12.80
2018-08-19T16:41:52.641Z,13.53
2018-08-19T16:44:34.136Z,13.00
2018-08-19T16:49:15.881Z,12.13
2018-08-19T16:51:51.031Z,12.67
2018-08-19T16:54:24.527Z,13.57
2018-08-19T16:56:59.881Z,12.83
2018-08-19T16:59:39.785Z,13.00
2018-08-19T17:02:13.576Z,12.53
2018-08-19T17:04:47.343Z,12.60
2018-08-19T17:07:20.675Z,13.13
2018-08-19T17:09:54.196Z,11.93
2018-08-19T17:12:39.462Z,13.30
2018-08-19T17:15:14.143Z,13.53
2018-08-19T17:17:50.554Z,13.93
2018-08-19T17:20:25.353Z,15.63
2018-08-19T17:23:01.499Z,15.30
2018-08-19T17:25:38.500Z,15.23
2018-08-19T17:28:16.338Z,13.70
2018-08-19T17:40:15.571Z,16.00
2018-08-19T17:42:49.064Z,16.23
2018-08-19T17:45:22.413Z,17.50
2018-08-19T17:47:56.433Z,16.43
2018-08-19T17:50:31.136Z,16.77
2018-08-19T17:53:04.884Z,17.07
2018-08-19T17:55:38.254Z,18.07
2018-08-19T17:58:13.529Z,26.33
2018-08-19T18:01:03.261Z,27.30
2018-08-19T18:03:45.604Z,24.83
2018-08-19T18:06:19.436Z,24.97
2018-08-19T18:08:54.836Z,23.03
2018-08-19T18:11:28.626Z,24.27
2018-08-19T18:14:01.740Z,28.43
2018-08-19T18:16:35.168Z,31.13
2018-08-19T18:19:08.647Z,29.83
2018-08-19T18:21:41.996Z,34.80
2018-08-19T18:24:15.614Z,30.10
2018-08-19T18:26:49.179Z,29.70
2018-08-19T18:29:22.254Z,31.60
2018-08-19T18:31:56.914Z,34.57
2018-08-19T18:34:30.153Z,35.70
2018-08-19T18:37:03.667Z,34.93
2018-08-19T18:39:37.742Z,34.50
2018-08-19T18:42:12.916Z,33.93
2018-08-19T18:44:46.560Z,30.67
2018-08-19T18:47:19.661Z,30.20
2018-08-19T18:49:53.376Z,30.17
2018-08-19T18:52:26.517Z,32.43
2018-08-19T18:55:00.460Z,33.73
2018-08-19T18:57:34.446Z,24.50
2018-08-19T19:00:08.515Z,21.83
2018-08-19T19:02:46.157Z,23.57
2018-08-19T19:05:40.668Z,22.83
2018-08-19T19:08:18.073Z,21.40
2018-08-19T19:10:59.840Z,20.00
2018-08-19T19:13:34.019Z,19.63
2018-08-19T19:16:07.761Z,20.20
2018-08-19T19:18:42.868Z,22.57
2018-08-19T19:21:17.190Z,22.27
2018-08-19T19:23:52.754Z,22.07
2018-08-19T19:26:34.451Z,23.10
2018-08-19T19:29:13.096Z,22.60
2018-08-19T19:31:47.194Z,22.07
2018-08-19T19:34:20.099Z,23.37
2018-08-19T19:36:53.233Z,22.33
2018-08-19T19:39:28.960Z,22.13
2018-08-19T19:42:13.806Z,23.33
2018-08-19T19:44:47.326Z,23.03
2018-08-19T19:47:22.464Z,23.80
2018-08-19T19:49:59.342Z,21.63
2018-08-19T19:52:33.168Z,21.30
2018-08-19T19:55:06.465Z,22.27
2018-08-19T19:57:40.679Z,22.53
2018-08-19T20:00:14.326Z,21.60
2018-08-19T20:02:50.184Z,22.20
2018-08-19T20:05:27.063Z,22.30
2018-08-19T20:08:03.802Z,20.87
2018-08-19T20:10:37.631Z,22.17
2018-08-19T20:13:12.082Z,24.23
2018-08-19T20:15:46.797Z,23.83
2018-08-19T20:18:21.456Z,24.00
2018-08-19T20:20:56.629Z,23.20
2018-08-19T20:23:32.089Z,24.00
2018-08-19T20:26:05.933Z,23.87
2018-08-19T20:28:44.825Z,25.10
2018-08-19T20:31:18.589Z,24.50
2018-08-19T20:33:52.312Z,25.90
2018-08-19T20:36:25.755Z,27.20
2018-08-19T20:39:00.689Z,26.13
2018-08-19T20:41:34.069Z,28.47
2018-08-19T20:44:11.927Z,28.07
2018-08-19T20:46:52.278Z,29.67
2018-08-19T20:49:26.802Z,26.53
2018-08-19T20:52:02.036Z,29.60
2018-08-19T20:54:36.187Z,28.90
2018-08-19T20:57:09.753Z,30.70
2018-08-19T20:59:42.918Z,32.03
2018-08-19T21:02:16.435Z,30.43
2018-08-19T21:04:50.090Z,30.20
2018-08-19T21:07:27.193Z,31.53
2018-08-19T21:10:01.092Z,30.03
2018-08-19T21:12:34.497Z,32.10
2018-08-19T21:15:08.840Z,32.17
2018-08-19T21:17:43.407Z,32.23
2018-08-19T21:20:17.311Z,32.83
2018-08-19T21:22:51.156Z,33.67
2018-08-19T21:25:26.253Z,32.47
2018-08-19T21:28:00.365Z,33.80
2018-08-19T21:30:33.530Z,33.50
2018-08-19T21:33:08.742Z,33.97
2018-08-19T21:35:47.518Z,33.07
2018-08-19T21:38:21.708Z,34.40
2018-08-19T21:41:02.594Z,34.07
2018-08-19T21:43:37.819Z,32.07
2018-08-19T21:46:11.530Z,32.93
2018-08-19T21:48:44.885Z,33.33
2018-08-19T21:51:18.850Z,33.13
2018-08-19T21:53:54.254Z,34.93
2018-08-19T21:56:28.445Z,34.40
2018-08-19T21:59:04.227Z,33.53
2018-08-19T22:01:38.699Z,33.13
2018-08-19T22:04:13.062Z,41.03
2018-08-19T22:06:47.372Z,46.67
2018-08-19T22:09:32.409Z,48.73
2018-08-19T22:12:06.558Z,52.73
2018-08-19T22:14:40.600Z,56.60
2018-08-19T22:17:17.140Z,54.67
2018-08-19T22:19:54.420Z,54.00
2018-08-19T22:22:27.839Z,53.90
2018-08-19T22:25:01.737Z,54.23
2018-08-19T22:27:34.871Z,54.87
2018-08-19T22:30:09.057Z,54.50
2018-08-19T22:32:43.032Z,52.87
2018-08-19T22:35:18.801Z,51.93
2018-08-19T22:37:52.248Z,52.10
2018-08-19T22:40:36.536Z,52.17
2018-08-19T22:43:12.381Z,52.70
2018-08-19T22:45:48.209Z,54.77
2018-08-19T22:48:35.048Z,53.83
2018-08-19T22:51:09.401Z,53.07
2018-08-19T22:53:43.322Z,52.67
2018-08-19T22:56:19.442Z,52.80
2018-08-19T22:58:52.726Z,53.87
2018-08-19T23:01:30.327Z,56.83
2018-08-19T23:04:17.169Z,53.73
2018-08-19T23:06:51.016Z,58.43
2018-08-19T23:09:24.176Z,68.23
2018-08-19T23:11:57.855Z,71.03
2018-08-19T23:14:40.199Z,78.63
2018-08-19T23:17:13.717Z,68.53
2018-08-19T23:19:49.895Z,62.27
2018-08-19T23:22:23.382Z,61.30
2018-08-19T23:24:59.006Z,61.10
2018-08-19T23:27:32.553Z,65.63
2018-08-19T23:30:06.303Z,63.47
2018-08-19T23:32:40.738Z,62.73
2018-08-19T23:35:13.903Z,63.50
2018-08-19T23:37:47.351Z,68.33
2018-08-19T23:40:21.960Z,68.90
2018-08-19T23:42:56.748Z,70.03
2018-08-19T23:45:32.919Z,72.17
2018-08-19T23:48:06.878Z,75.33
2018-08-19T23:50:43.068Z,73.07
2018-08-19T23:53:17.163Z,74.80
2018-08-19T23:55:51.928Z,76.33
2018-08-19T23:58:25.398Z,69.93
